createdAt,value
2023-02-14T00:02:13.393Z,31.25
2023-02-14T00:04:44.296Z,32.25
2023-02-14T00:07:13.460Z,30.48
2023-02-14T00:09:41.826Z,31.73
2023-02-14T00:12:10.231Z,31.13
2023-02-14T00:14:55.892Z,31.88
2023-02-14T00:17:25.607Z,32.28
2023-02-14T00:19:53.973Z,31.60
2023-02-14T00:22:22.423Z,33.00
2023-02-14T00:24:50.771Z,29.52
2023-02-14T00:27:19.076Z,29.98
2023-02-14T00:29:47.584Z,29.85
2023-02-14T00:32:16.019Z,29.63
2023-02-14T00:34:45.682Z,31.98
2023-02-14T00:37:14.091Z,30.75
2023-02-14T00:39:42.541Z,31.10
2023-02-14T00:42:10.815Z,32.85
2023-02-14T00:44:39.190Z,31.77
2023-02-14T00:47:07.853Z,31.50
2023-02-14T00:49:36.237Z,32.85
2023-02-14T00:52:06.276Z,31.75
2023-02-14T00:54:34.628Z,31.05
2023-02-14T00:57:02.940Z,32.67
2023-02-14T00:59:31.264Z,30.83
2023-02-14T01:01:59.501Z,31.38
2023-02-14T01:04:27.881Z,31.48
2023-02-14T01:06:56.261Z,30.92
2023-02-14T01:09:26.072Z,29.95
2023-02-14T01:11:55.052Z,30.17
2023-02-14T01:14:23.494Z,32.28
2023-02-14T01:16:51.936Z,29.88
2023-02-14T01:19:20.356Z,32.40
2023-02-14T01:21:48.758Z,32.30
2023-02-14T01:24:17.050Z,32.72
2023-02-14T01:26:46.750Z,31.60
2023-02-14T01:29:15.034Z,32.77
2023-02-14T01:31:44.934Z,32.58
2023-02-14T01:34:13.459Z,32.28
2023-02-14T01:36:42.134Z,31.42
2023-02-14T01:39:14.594Z,34.25
2023-02-14T01:41:48.476Z,32.45
2023-02-14T01:45:01.082Z,34.75
2023-02-14T01:47:33.209Z,33.45
2023-02-14T01:50:07.413Z,33.28
2023-02-14T01:52:39.352Z,33.53
2023-02-14T01:55:17.056Z,33.00
2023-02-14T01:57:52.291Z,33.45
2023-02-14T02:00:39.641Z,32.08
2023-02-14T02:03:09.495Z,35.85
2023-02-14T02:05:42.575Z,34.95
2023-02-14T02:08:11.171Z,34.55
2023-02-14T02:10:39.523Z,33.78
2023-02-14T02:13:16.183Z,34.88
2023-02-14T02:15:58.395Z,35.88
2023-02-14T02:18:45.410Z,36.53
2023-02-14T02:22:17.175Z,33.85
2023-02-14T02:24:56.917Z,35.58
2023-02-14T02:27:48.306Z,34.42
2023-02-14T02:30:55.619Z,34.00
2023-02-14T02:34:05.637Z,34.13
2023-02-14T02:36:52.982Z,35.38
2023-02-14T02:39:39.365Z,36.58
2023-02-14T02:42:22.475Z,36.15
2023-02-14T02:45:07.987Z,34.65
2023-02-14T02:47:43.869Z,35.45
2023-02-14T02:50:42.285Z,37.05
2023-02-14T02:53:23.796Z,35.55
2023-02-14T02:56:16.468Z,36.63
2023-02-14T02:58:49.480Z,35.20
2023-02-14T03:01:23.502Z,36.22
2023-02-14T03:04:16.241Z,34.92
2023-02-14T03:06:46.359Z,34.72
2023-02-14T03:09:53.842Z,35.67
2023-02-14T03:13:17.958Z,35.05
2023-02-14T03:16:08.004Z,35.28
2023-02-14T03:19:16.344Z,36.15
2023-02-14T03:21:54.539Z,36.42
2023-02-14T03:24:31.711Z,35.80
2023-02-14T03:27:08.061Z,36.03
2023-02-14T03:29:50.700Z,34.65
2023-02-14T03:32:30.892Z,36.05
2023-02-14T03:35:08.758Z,36.58
2023-02-14T03:37:42.786Z,35.65
2023-02-14T03:40:18.233Z,34.42
2023-02-14T03:42:53.595Z,36.67
2023-02-14T03:45:29.874Z,36.83
2023-02-14T03:48:03.416Z,36.95
2023-02-14T03:50:33.813Z,36.22
2023-02-14T03:53:04.340Z,36.90
2023-02-14T03:55:39.167Z,35.70
2023-02-14T03:58:12.262Z,36.08
2023-02-14T04:00:43.426Z,37.28
2023-02-14T04:03:14.864Z,36.00
2023-02-14T04:05:46.723Z,34.50
2023-02-14T04:08:23.045Z,36.63
2023-02-14T04:10:54.006Z,37.15
2023-02-14T04:13:22.434Z,38.08
2023-02-14T04:15:50.739Z,36.55
2023-02-14T04:18:36.700Z,37.10
2023-02-14T04:21:05.605Z,38.33
2023-02-14T04:23:33.869Z,40.03
2023-02-14T04:26:04.860Z,37.08
2023-02-14T04:28:33.884Z,37.45
2023-02-14T04:31:04.158Z,36.90
2023-02-14T04:33:33.225Z,37.10
2023-02-14T04:36:02.036Z,37.90
2023-02-14T04:38:30.474Z,36.97
2023-02-14T04:40:59.058Z,38.40
2023-02-14T04:43:28.999Z,38.20
2023-02-14T04:45:57.327Z,37.97
2023-02-14T04:48:25.592Z,39.13
2023-02-14T04:50:55.559Z,37.05
2023-02-14T04:53:24.051Z,35.83
2023-02-14T04:55:52.681Z,35.60
2023-02-14T04:58:21.025Z,37.72
2023-02-14T05:00:50.865Z,37.35
2023-02-14T05:03:19.148Z,36.25
2023-02-14T05:05:47.959Z,36.58
2023-02-14T05:08:16.235Z,37.92
2023-02-14T05:10:44.788Z,35.95
2023-02-14T05:13:13.105Z,32.58
2023-02-14T05:15:41.445Z,37.53
2023-02-14T05:18:11.063Z,36.55
2023-02-14T05:20:39.501Z,34.75
2023-02-14T05:23:13.544Z,37.13
2023-02-14T05:25:41.997Z,35.08
2023-02-14T05:28:10.775Z,35.65
2023-02-14T05:30:39.698Z,36.92
2023-02-14T05:33:09.825Z,35.55
2023-02-14T05:35:38.231Z,35.20
2023-02-14T05:38:06.780Z,36.20
2023-02-14T05:40:35.063Z,36.28
2023-02-14T05:43:03.322Z,36.50
2023-02-14T05:45:31.726Z,37.60
2023-02-14T05:48:00.021Z,36.20
2023-02-14T05:50:30.187Z,37.15
2023-02-14T05:52:59.031Z,36.22
2023-02-14T05:55:27.384Z,38.05
2023-02-14T05:57:55.975Z,39.08
2023-02-14T06:00:25.472Z,37.42
2023-02-14T06:02:53.893Z,38.08
2023-02-14T06:05:22.527Z,38.17
2023-02-14T06:07:52.463Z,40.38
2023-02-14T06:10:23.650Z,39.90
2023-02-14T06:12:54.429Z,39.33
2023-02-14T06:15:23.790Z,39.63
2023-02-14T06:17:56.607Z,39.80
2023-02-14T06:20:26.301Z,41.85
2023-02-14T06:22:56.104Z,41.17
2023-02-14T06:25:25.829Z,42.03
2023-02-14T06:27:58.107Z,41.15
2023-02-14T06:30:27.390Z,41.55
2023-02-14T06:32:56.076Z,41.13
2023-02-14T06:35:24.564Z,41.75
2023-02-14T06:37:52.833Z,40.95
2023-02-14T06:40:22.708Z,40.78
2023-02-14T06:42:51.067Z,40.75
2023-02-14T06:45:19.521Z,41.72
2023-02-14T06:47:47.927Z,42.30
2023-02-14T06:50:16.277Z,41.90
2023-02-14T06:52:44.584Z,42.90
2023-02-14T06:55:13.857Z,42.65
2023-02-14T06:57:43.568Z,43.03
2023-02-14T07:00:14.922Z,41.93
2023-02-14T07:02:43.734Z,39.35
2023-02-14T07:05:12.053Z,39.42
2023-02-14T07:07:40.408Z,42.35
2023-02-14T07:10:09.800Z,41.30
2023-02-14T07:12:39.503Z,39.67
2023-02-14T07:15:11.792Z,41.27
2023-02-14T07:17:40.516Z,41.20
2023-02-14T07:20:12.719Z,41.00
2023-02-14T07:22:41.455Z,41.03
2023-02-14T07:25:10.350Z,40.63
2023-02-14T07:27:38.715Z,39.92
2023-02-14T07:30:10.465Z,39.88
2023-02-14T07:32:39.616Z,41.92
2023-02-14T07:35:09.223Z,43.08
2023-02-14T07:37:37.629Z,42.38
2023-02-14T07:40:14.377Z,42.17
2023-02-14T07:42:43.742Z,40.10
2023-02-14T07:45:21.641Z,40.30
2023-02-14T07:47:52.201Z,39.08
2023-02-14T07:50:21.577Z,41.05
2023-02-14T07:52:51.155Z,41.90
2023-02-14T07:55:20.314Z,40.75
2023-02-14T07:57:49.646Z,39.55
2023-02-14T08:00:21.249Z,37.55
2023-02-14T08:02:49.687Z,37.75
2023-02-14T08:05:18.403Z,38.58
2023-02-14T08:07:47.296Z,38.97
2023-02-14T08:10:16.459Z,39.28
2023-02-14T08:13:03.536Z,37.72
2023-02-14T08:15:52.609Z,36.65
2023-02-14T08:18:23.605Z,35.03
2023-02-14T08:20:52.598Z,37.63
2023-02-14T08:23:22.096Z,35.13
2023-02-14T08:25:52.513Z,36.38
2023-02-14T08:28:24.405Z,36.70
2023-02-14T08:30:54.591Z,38.42
2023-02-14T08:33:23.855Z,37.17
2023-02-14T08:35:53.182Z,38.03
2023-02-14T08:38:22.378Z,37.83
2023-02-14T08:40:50.674Z,37.70
2023-02-14T08:43:19.135Z,37.88
2023-02-14T08:45:48.664Z,39.90
2023-02-14T08:48:18.366Z,38.00
2023-02-14T08:50:46.783Z,38.90
2023-02-14T08:53:15.250Z,37.17
2023-02-14T08:55:43.544Z,37.67
2023-02-14T08:58:12.049Z,38.88
2023-02-14T09:00:40.713Z,39.60
2023-02-14T09:03:10.622Z,38.15
2023-02-14T09:05:40.456Z,38.67
2023-02-14T09:08:09.022Z,38.10
2023-02-14T09:10:38.215Z,37.85
2023-02-14T09:13:07.314Z,39.90
2023-02-14T09:15:35.669Z,39.08
2023-02-14T09:18:03.990Z,37.95
2023-02-14T09:20:32.593Z,38.67
2023-02-14T09:23:02.217Z,39.33
2023-02-14T09:25:30.564Z,38.85
2023-02-14T09:27:59.046Z,37.83
2023-02-14T09:30:27.570Z,39.13
2023-02-14T09:32:56.119Z,39.83
2023-02-14T09:35:24.536Z,39.35
2023-02-14T09:38:10.416Z,40.00
2023-02-14T09:40:40.226Z,38.53
2023-02-14T09:43:16.835Z,38.83
2023-02-14T09:45:52.448Z,37.70
2023-02-14T09:48:29.701Z,38.38
2023-02-14T09:51:02.162Z,38.42
2023-02-14T09:53:34.148Z,38.65
2023-02-14T09:56:13.589Z,39.67
2023-02-14T09:58:49.046Z,39.42
2023-02-14T10:01:25.671Z,39.67
2023-02-14T10:04:24.256Z,38.58
2023-02-14T10:07:00.740Z,39.58
2023-02-14T10:09:50.736Z,39.22
2023-02-14T10:12:26.348Z,40.30
2023-02-14T10:14:56.962Z,40.28
2023-02-14T10:20:05.880Z,41.90
2023-02-14T10:22:43.427Z,41.42
2023-02-14T10:25:22.379Z,41.33
2023-02-14T10:27:54.485Z,41.38
2023-02-14T10:30:24.934Z,42.95
2023-02-14T10:33:06.903Z,42.33
2023-02-14T10:35:43.720Z,43.80
2023-02-14T10:38:34.747Z,41.55
2023-02-14T10:41:24.820Z,41.67
2023-02-14T10:44:06.104Z,42.55
2023-02-14T10:46:43.837Z,42.40
2023-02-14T10:49:33.158Z,41.17
2023-02-14T10:52:09.850Z,42.25
2023-02-14T10:54:41.672Z,42.05
2023-02-14T10:57:17.515Z,41.70
2023-02-14T10:59:54.254Z,39.40
2023-02-14T11:02:27.140Z,40.55
2023-02-14T11:04:56.198Z,40.78
2023-02-14T11:07:24.786Z,41.13
2023-02-14T11:09:53.148Z,41.35
2023-02-14T11:12:40.102Z,41.28
2023-02-14T11:15:27.553Z,41.17
2023-02-14T11:18:17.298Z,40.45
2023-02-14T11:21:00.305Z,41.88
2023-02-14T11:23:28.778Z,45.00
2023-02-14T11:25:57.709Z,42.83
2023-02-14T11:28:26.199Z,43.00
2023-02-14T11:30:56.995Z,42.78
2023-02-14T11:33:36.331Z,43.17
2023-02-14T11:36:07.352Z,42.25
2023-02-14T11:38:38.415Z,44.03
2023-02-14T11:41:10.159Z,44.25
2023-02-14T11:43:40.434Z,44.33
2023-02-14T11:46:17.185Z,43.97
2023-02-14T11:49:01.464Z,44.55
2023-02-14T11:51:33.232Z,46.33
2023-02-14T11:54:05.303Z,44.72
2023-02-14T11:56:54.310Z,45.60
2023-02-14T11:59:36.364Z,45.05
2023-02-14T12:02:24.354Z,45.97
2023-02-14T12:04:57.761Z,45.88
2023-02-14T12:07:31.046Z,45.63
2023-02-14T12:10:27.236Z,45.75
2023-02-14T12:13:02.512Z,44.85
2023-02-14T12:15:40.742Z,44.33
2023-02-14T12:18:42.241Z,45.83
2023-02-14T12:21:26.175Z,46.05
2023-02-14T12:24:04.589Z,44.90
2023-02-14T12:26:37.417Z,45.63
2023-02-14T12:29:16.615Z,45.35
2023-02-14T12:31:46.373Z,45.95
2023-02-14T12:34:18.257Z,44.90
2023-02-14T12:37:32.836Z,45.08
2023-02-14T12:40:22.461Z,43.85
2023-02-14T12:43:09.262Z,44.72
2023-02-14T12:46:12.816Z,43.67
2023-02-14T12:49:02.999Z,42.90
2023-02-14T12:51:40.569Z,43.10
2023-02-14T12:54:32.308Z,43.10
2023-02-14T12:57:13.679Z,43.63
2023-02-14T12:59:51.933Z,44.17
2023-02-14T13:03:01.840Z,41.70
2023-02-14T13:05:45.190Z,43.07
2023-02-14T13:08:37.685Z,44.40
2023-02-14T13:11:16.902Z,41.95
2023-02-14T13:13:55.978Z,43.78
2023-02-14T13:16:33.622Z,43.60
2023-02-14T13:19:12.728Z,43.25
2023-02-14T13:21:42.452Z,41.33
2023-02-14T13:24:19.388Z,42.87
2023-02-14T13:26:53.781Z,43.03
2023-02-14T13:29:25.564Z,43.38
2023-02-14T13:31:58.805Z,42.88
2023-02-14T13:34:31.567Z,42.72
2023-02-14T13:37:01.984Z,42.42
2023-02-14T13:39:38.491Z,42.15
2023-02-14T13:42:08.477Z,41.63
2023-02-14T13:44:48.091Z,43.10
2023-02-14T13:47:21.145Z,44.45
2023-02-14T13:49:53.127Z,42.40
2023-02-14T13:52:43.293Z,43.47
2023-02-14T13:55:20.574Z,44.42
2023-02-14T13:58:03.253Z,43.28
2023-02-14T14:00:43.644Z,43.97
2023-02-14T14:03:16.511Z,44.50
2023-02-14T14:06:07.404Z,43.28
2023-02-14T14:08:56.127Z,42.88
2023-02-14T14:12:00.788Z,44.55
2023-02-14T14:14:39.713Z,43.97
2023-02-14T14:17:29.005Z,41.53
2023-02-14T14:19:58.097Z,44.17
2023-02-14T14:22:27.025Z,41.95
2023-02-14T14:25:01.657Z,42.22
2023-02-14T14:27:36.027Z,41.25
2023-02-14T14:30:07.837Z,40.75
2023-02-14T14:32:38.957Z,40.05
2023-02-14T14:35:19.043Z,43.47
2023-02-14T14:37:50.032Z,43.60
2023-02-14T14:40:26.546Z,42.63
2023-02-14T14:43:01.113Z,42.78
2023-02-14T14:45:31.952Z,43.00
2023-02-14T14:48:04.352Z,43.35
2023-02-14T14:50:34.641Z,42.80
2023-02-14T14:53:06.774Z,43.65
2023-02-14T14:55:38.796Z,43.22
2023-02-14T14:58:36.779Z,43.63
2023-02-14T15:01:06.801Z,45.47
2023-02-14T15:03:35.559Z,46.20
2023-02-14T15:06:09.692Z,45.50
2023-02-14T15:08:38.199Z,45.08
2023-02-14T15:11:11.397Z,45.25
2023-02-14T15:13:53.838Z,44.30
2023-02-14T15:16:26.678Z,44.97
2023-02-14T15:18:58.597Z,44.30
2023-02-14T15:21:27.778Z,43.97
2023-02-14T15:23:56.603Z,46.38
2023-02-14T15:26:29.762Z,46.80
2023-02-14T15:29:03.214Z,45.75
2023-02-14T15:31:35.595Z,45.95
2023-02-14T15:34:05.210Z,48.30
2023-02-14T15:36:36.013Z,47.05
2023-02-14T15:39:07.940Z,47.92
2023-02-14T15:41:37.179Z,46.92
2023-02-14T15:44:06.989Z,48.03
2023-02-14T15:46:38.916Z,48.60
2023-02-14T15:49:12.014Z,47.58
2023-02-14T15:51:41.790Z,47.25
2023-02-14T15:54:22.488Z,48.50
2023-02-14T15:56:53.839Z,47.60
2023-02-14T15:59:29.049Z,47.05
2023-02-14T16:02:01.123Z,47.97
2023-02-14T16:04:31.788Z,49.42
2023-02-14T16:09:45.815Z,46.80
2023-02-14T16:12:33.778Z,46.97
2023-02-14T16:15:12.052Z,46.90
2023-02-14T16:17:41.973Z,48.50
2023-02-14T16:20:43.266Z,46.88
2023-02-14T16:23:22.136Z,48.80
2023-02-14T16:25:50.952Z,47.45
2023-02-14T16:28:19.489Z,46.25
2023-02-14T16:30:56.082Z,48.20
2023-02-14T16:33:27.744Z,50.03
2023-02-14T16:35:59.813Z,48.33
2023-02-14T16:38:28.187Z,50.55
2023-02-14T16:40:56.568Z,48.67
2023-02-14T16:43:25.178Z,47.28
2023-02-14T16:45:55.386Z,50.28
2023-02-14T16:48:23.712Z,49.20
2023-02-14T16:50:52.549Z,50.17
2023-02-14T16:53:27.956Z,48.25
2023-02-14T16:55:58.486Z,48.80
2023-02-14T16:58:34.277Z,49.90
2023-02-14T17:01:04.779Z,50.45
2023-02-14T17:03:33.098Z,50.95
2023-02-14T17:06:02.548Z,52.20
2023-02-14T17:08:32.412Z,47.90
2023-02-14T17:11:02.097Z,48.53
2023-02-14T17:13:34.785Z,50.67
2023-02-14T17:16:06.332Z,50.20
2023-02-14T17:18:36.564Z,48.08
2023-02-14T17:21:06.351Z,51.75
2023-02-14T17:23:34.639Z,51.53
2023-02-14T17:26:03.265Z,49.13
2023-02-14T17:28:31.623Z,50.15
2023-02-14T17:31:00.926Z,50.53
2023-02-14T17:33:32.789Z,51.00
2023-02-14T17:36:06.673Z,50.42
2023-02-14T17:38:35.950Z,49.25
2023-02-14T17:41:13.828Z,43.38
2023-02-14T17:43:42.448Z,45.75
2023-02-14T17:46:11.441Z,47.80
2023-02-14T17:48:41.490Z,52.83
2023-02-14T17:51:11.080Z,50.45
2023-02-14T17:53:41.540Z,51.47
2023-02-14T17:56:13.136Z,51.90
2023-02-14T17:58:41.992Z,52.88
2023-02-14T18:01:13.160Z,53.67
2023-02-14T18:03:43.292Z,52.42
2023-02-14T18:06:12.842Z,52.20
2023-02-14T18:08:46.235Z,52.55
2023-02-14T18:11:15.018Z,52.70
2023-02-14T18:13:44.400Z,49.60
2023-02-14T18:16:15.969Z,52.00
2023-02-14T18:18:46.018Z,50.45
2023-02-14T18:21:16.641Z,50.75
2023-02-14T18:23:44.946Z,54.33
2023-02-14T18:26:15.883Z,52.50
2023-02-14T18:28:44.822Z,53.72
2023-02-14T18:31:15.924Z,52.40
2023-02-14T18:33:48.766Z,53.97
2023-02-14T18:36:19.572Z,51.50
2023-02-14T18:38:49.850Z,53.55
2023-02-14T18:41:20.676Z,55.50
2023-02-14T18:43:50.014Z,56.97
2023-02-14T18:46:21.489Z,57.55
2023-02-14T18:48:52.038Z,53.05
2023-02-14T18:51:23.523Z,52.83
2023-02-14T18:53:54.442Z,60.42
2023-02-14T18:56:25.503Z,57.47
2023-02-14T18:59:00.716Z,51.20
2023-02-14T19:01:32.174Z,51.13
2023-02-14T19:04:02.572Z,51.45
2023-02-14T19:06:32.596Z,51.47
2023-02-14T19:09:01.768Z,50.20
2023-02-14T19:11:32.756Z,50.72
2023-02-14T19:14:03.437Z,53.85
2023-02-14T19:16:36.907Z,50.15
2023-02-14T19:19:06.948Z,49.47
2023-02-14T19:21:36.739Z,48.90
2023-02-14T19:24:08.021Z,52.90
2023-02-14T19:26:40.490Z,52.40
2023-02-14T19:29:11.629Z,51.22
2023-02-14T19:31:43.331Z,47.72
2023-02-14T19:34:19.693Z,51.22
2023-02-14T19:36:49.562Z,52.05
2023-02-14T19:39:19.099Z,55.22
2023-02-14T19:41:48.951Z,49.92
2023-02-14T19:44:19.156Z,47.75
2023-02-14T19:46:48.685Z,54.40
2023-02-14T19:49:20.617Z,50.17
2023-02-14T19:51:52.141Z,49.92
2023-02-14T19:54:21.960Z,59.60
2023-02-14T19:56:50.548Z,58.97
2023-02-14T19:59:22.555Z,53.97
2023-02-14T20:01:53.162Z,55.20
2023-02-14T20:04:25.426Z,60.92
2023-02-14T20:06:54.630Z,58.95
2023-02-14T20:09:23.982Z,58.58
2023-02-14T20:11:54.564Z,52.97
2023-02-14T20:14:25.636Z,49.38
2023-02-14T20:16:56.001Z,54.25
2023-02-14T20:19:29.465Z,56.65
2023-02-14T20:21:57.969Z,56.65
2023-02-14T20:24:28.483Z,51.90
2023-02-14T20:26:57.618Z,55.05
2023-02-14T20:29:26.861Z,48.28
2023-02-14T20:31:59.800Z,53.72
2023-02-14T20:34:30.047Z,49.08
2023-02-14T20:36:59.278Z,47.50
2023-02-14T20:39:31.806Z,39.80
2023-02-14T20:42:00.540Z,47.50
2023-02-14T20:44:29.250Z,52.28
2023-02-14T20:46:58.419Z,42.55
2023-02-14T20:49:30.941Z,52.00
2023-02-14T20:51:59.873Z,53.38
2023-02-14T20:54:29.814Z,43.55
2023-02-14T20:56:59.071Z,52.25
2023-02-14T20:59:28.770Z,59.42
2023-02-14T21:01:59.224Z,47.90
2023-02-14T21:04:29.814Z,56.50
2023-02-14T21:07:00.241Z,65.25
2023-02-14T21:09:28.690Z,40.97
2023-02-14T21:11:58.300Z,52.83
2023-02-14T21:14:26.808Z,59.93
2023-02-14T21:16:55.097Z,53.35
2023-02-14T21:19:23.498Z,52.45
2023-02-14T21:21:53.476Z,50.58
2023-02-14T21:24:21.922Z,53.75
2023-02-14T21:26:50.211Z,46.33
2023-02-14T21:29:18.750Z,54.60
2023-02-14T21:31:47.086Z,48.05
2023-02-14T21:34:17.146Z,48.65
2023-02-14T21:36:46.032Z,53.05
2023-02-14T21:39:16.058Z,44.40
2023-02-14T21:41:44.376Z,39.78
2023-02-14T21:44:32.770Z,35.30
2023-02-14T21:47:00.164Z,40.67
2023-02-14T21:49:46.244Z,52.22
2023-02-14T21:52:14.548Z,64.25
2023-02-14T21:54:44.218Z,58.10
2023-02-14T21:57:12.628Z,52.20
2023-02-14T21:59:41.206Z,56.25
2023-02-14T22:02:09.529Z,54.10
2023-02-14T22:04:38.368Z,35.75
2023-02-14T22:07:06.730Z,27.38
2023-02-14T22:09:35.224Z,29.40
2023-02-14T22:12:05.598Z,36.97
2023-02-14T22:14:33.921Z,40.63
2023-02-14T22:17:02.188Z,49.83
2023-02-14T22:19:30.665Z,41.92
2023-02-14T22:21:58.948Z,45.83
2023-02-14T22:24:27.444Z,44.63
2023-02-14T22:26:55.952Z,40.83
2023-02-14T22:29:25.693Z,43.42
2023-02-14T22:31:54.160Z,45.00
2023-02-14T22:34:22.482Z,49.15
2023-02-14T22:36:51.290Z,35.28
2023-02-14T22:39:20.044Z,27.45
2023-02-14T22:41:48.400Z,32.38
2023-02-14T22:44:16.723Z,43.25
2023-02-14T22:46:46.404Z,25.52
2023-02-14T22:49:15.053Z,28.10
2023-02-14T22:51:44.181Z,29.00
2023-02-14T22:54:15.411Z,25.00
2023-02-14T22:56:45.799Z,25.25
2023-02-14T22:59:19.724Z,25.67
2023-02-14T23:01:51.060Z,27.13
2023-02-14T23:04:22.682Z,26.42
2023-02-14T23:06:52.818Z,23.25
2023-02-14T23:09:21.827Z,21.95
2023-02-14T23:11:50.935Z,22.63
2023-02-14T23:14:37.710Z,27.13
2023-02-14T23:17:21.854Z,24.40
2023-02-14T23:20:07.479Z,26.23
2023-02-14T23:22:38.390Z,31.13
2023-02-14T23:25:09.455Z,35.63
2023-02-14T23:27:40.887Z,53.88
2023-02-14T23:30:14.226Z,41.60
2023-02-14T23:32:44.167Z,47.97
2023-02-14T23:35:12.477Z,29.40
2023-02-14T23:37:41.684Z,24.63
2023-02-14T23:40:11.464Z,27.35
2023-02-14T23:42:39.851Z,48.92
2023-02-14T23:45:32.403Z,57.35
2023-02-14T23:48:05.228Z,62.10
2023-02-14T23:50:33.528Z,55.88
2023-02-14T23:53:01.756Z,59.88
2023-02-14T23:55:30.072Z,51.58
2023-02-14T23:57:58.385Z,42.97
